TAF Text Data
IDs:
Format:
Raw Decoded Include METAR

Data at: 1528 UTC 24 Aug 2019

Region: TOP
KATL 241354Z 2414/2518 04004KT P6SM FEW010 SCT150
  FM241500 05004KT P6SM SCT035 SCT250
  FM241800 09006KT P6SM VCSH BKN040
  TEMPO 2419/2423 5SM TSRA BKN035CB
  FM250100 08007KT P6SM -SHRA FEW014 BKN025
  FM250600 08010KT P6SM OVC007
  FM251100 08010KT P6SM OVC005


KBOS 241503Z 2415/2518 05010KT P6SM FEW045
  FM242000 08012KT P6SM SCT040
  FM251000 04012KT P6SM VCSH BKN020
  FM251200 04010G21KT P6SM VCSH BKN020


KBWI 241432Z 2415/2518 02008KT P6SM FEW050
  FM241700 04008KT P6SM SCT050
  FM250100 VRB03KT P6SM SCT050


KCLE 241458Z 2415/2518 08010KT P6SM SCT040
  TEMPO 2415/2418 BKN040
  FM250400 05007KT P6SM FEW040
  FM251600 12008KT P6SM SKC


KCLT 241515Z 2415/2518 02008KT 6SM BR VCSH BKN007 OVC012
  FM241600 03008KT P6SM OVC010
  FM241700 04009KT P6SM VCSH OVC013
  TEMPO 2417/2420 4SM -SHRA SCT007 OVC022
  FM242000 04008KT P6SM VCSH OVC022
  FM250300 06008KT P6SM OVC018
  PROB30 2507/2513 3SM SHRA OVC007


KCVG 241120Z 2412/2518 05009KT P6SM SKC
  FM241600 06012KT P6SM FEW040
  FM242300 05008KT P6SM SKC
  FM251500 10006KT P6SM SCT040 SCT250


KDCA 241432Z 2415/2518 01010KT P6SM SCT050
  FM250000 03007KT P6SM SCT050
  FM250600 36005KT P6SM FEW050


KDEN 241501Z 2415/2518 31011KT P6SM FEW100 SCT150 SCT220
  FM242200 02009KT P6SM FEW100 SCT200
  FM250000 12008KT P6SM SCT100
  FM250400 22011KT P6SM SKC
  FM251500 29013KT P6SM FEW120


KDFW 241507Z 2415/2518 16008KT P6SM FEW040 SCT150 BKN250
  FM241900 14008KT P6SM VCTS SCT050CB BKN250
  FM250000 15007KT P6SM SCT250


KDTW 241507Z 2415/2518 05010KT P6SM FEW040
  TEMPO 2415/2417 06011G18KT SCT040
  FM241700 06009KT P6SM SCT060
  FM242300 04006KT P6SM FEW200
  FM251100 09006KT P6SM FEW050


KEWR 241433Z 2415/2518 02011KT P6SM SCT080
  FM241600 03009KT P6SM SCT060
  FM242300 05008KT P6SM SCT060
  FM250400 04006KT P6SM SCT040
  FM251100 03009KT P6SM SCT030 BKN040
  FM251300 04011G17KT P6SM SCT025 BKN035


KFLL 241510Z 2415/2518 VRB05KT P6SM VCTS SCT020CB SCT080 BKN250
  FM241600 16011KT P6SM VCTS SCT025CB BKN050 BKN250
  FM250000 19005KT P6SM VCSH SCT025 BKN100 BKN250
  FM251000 22006KT P6SM VCSH SCT025 BKN050 BKN250


KIAD 241432Z 2415/2518 01010KT P6SM SCT050
  FM250000 03006KT P6SM SCT050
  FM250400 VRB03KT P6SM FEW050


KIAH 241124Z 2412/2518 VRB04KT P6SM SCT025 BKN250
  FM241800 14009KT P6SM VCTS BKN045CB
  TEMPO 2418/2420 VRB10G25KT 4SM TSRA BKN040CB
  FM242100 14008KT P6SM VCTS SCT040CB BKN060
  FM250200 15005KT P6SM BKN250
  FM251500 18004KT P6SM VCSH SCT050 SCT090


KJFK 241433Z 2415/2518 01011KT P6SM SCT070
  FM241600 03010KT P6SM SCT060
  FM242100 07009KT P6SM SCT060
  FM250300 05007KT P6SM BKN040
  FM251100 04011KT P6SM SCT025 BKN035
  FM251400 05013G18KT P6SM SCT025 BKN035


KLAS 241457Z 2415/2518 VRB05KT P6SM SKC
  FM241900 19007KT P6SM SKC
  FM242300 20011G20KT P6SM FEW250
  FM250300 19008KT P6SM FEW250
  FM250900 16009KT P6SM SKC


KLAX 241417Z 2414/2518 VRB03KT P6SM SKC
  FM241800 26012KT P6SM SKC
  FM250300 26006KT P6SM SKC
  FM250900 VRB03KT P6SM OVC008
  FM251700 26007KT P6SM FEW010


KLGA 241433Z 2415/2518 01011KT P6SM FEW070
  FM241600 04009KT P6SM SCT060
  FM242300 07008KT P6SM SCT060
  FM250400 04007KT P6SM BKN040
  FM251100 04010KT P6SM SCT025 BKN035
  FM251400 04012G17KT P6SM SCT025 BKN035


KMCO 241135Z 2412/2518 04006KT P6SM FEW045 FEW250
  FM241400 02005KT P6SM SCT035 SCT250
  FM241600 04010KT P6SM VCSH SCT040 BKN070
  FM250000 06004KT P6SM SCT025 BKN120
  FM251400 01005KT P6SM SCT035 BKN080


KMDW 241456Z 2415/2518 08012KT P6SM SCT250
  FM250400 12007KT P6SM FEW250
  FM251500 10010KT P6SM SCT250


KMEM 241508Z 2415/2518 08005KT P6SM FEW015 BKN025
  FM241700 06005KT P6SM BKN035
  FM242000 06007KT P6SM VCTS SCT040CB BKN045
  FM250300 07006KT P6SM VCSH BKN040 OVC080
  FM251000 12004KT P6SM BKN009 OVC040
  FM251400 16005KT P6SM SCT015 BKN050


KMIA 241510Z 2415/2518 VRB05KT P6SM VCTS SCT020CB BKN035 BKN080
  TEMPO 2415/2417 VRB15G25KT 4SM TSRA BKN020 BKN035CB BKN080
  FM241700 16010KT P6SM VCTS SCT030CB BKN050 BKN080
  FM250000 18005KT P6SM VCSH SCT025 BKN100 BKN250
  FM251000 21006KT P6SM VCSH SCT025 BKN050 BKN250


KMSP 241441Z 2415/2518 15009KT P6SM BKN050
  FM241800 14010G18KT P6SM SCT050 BKN250
  FM250100 14008KT P6SM SCT250
  FM251500 15011G19KT P6SM BKN100


KORD 241456Z 2415/2518 08012KT P6SM SCT250
  FM250400 11006KT P6SM FEW250
  FM251500 10010KT P6SM SCT250


KPDX 241453Z 2415/2512 VRB03KT P6SM SCT060 SCT200
  FM242100 31008KT P6SM SCT060 SCT200
  FM250300 32008KT P6SM FEW060
  FM251100 32003KT P6SM BKN022


KPHL 241505Z 2415/2518 05010KT P6SM SCT080
  TEMPO 2415/2417 BKN080
  FM242300 06006KT P6SM SCT200


KPHX 241426Z 2414/2518 VRB06KT P6SM SCT060 SCT100
  TEMPO 2414/2416 14004KT BKN060
  FM242000 26012KT P6SM FEW060 SCT100 SCT250
  FM242300 28012G18KT P6SM FEW100 SCT250
  FM251100 29006KT P6SM SCT060 SCT100


KPIT 241500Z 2415/2518 07005KT P6SM SCT070
  FM250600 07006KT P6SM SKC
  FM251400 10007KT P6SM SCT250


KSAN 241443Z 2415/2518 VRB04KT P6SM SCT013
  FM241900 27009KT P6SM SKC
  FM250200 VRB04KT P6SM FEW010
  FM250800 VRB04KT P6SM BKN009
  FM251630 VRB04KT P6SM SCT010


KSEA 241410Z 2414/2518 19006KT P6SM SCT025 OVC060
  TEMPO 2414/2416 BKN015
  FM241800 22007KT P6SM SCT060
  FM242200 25007KT P6SM BKN060
  FM250200 33008KT P6SM BKN060
  FM251000 22006KT P6SM OVC050


KSFO 241503Z 2415/2518 25005KT P6SM SCT011
  TEMPO 2415/2417 BKN011
  FM241700 33006KT P6SM SCT011
  FM242100 30015KT P6SM FEW011
  FM250300 29010KT P6SM FEW010
  FM250900 27006KT P6SM SCT010
  FM251700 33005KT P6SM FEW010


KSLC 241500Z 2415/2518 17008KT P6SM FEW200
  FM242000 33010KT P6SM SKC
  FM250300 15007KT P6SM SKC


KSTL 241457Z 2415/2518 09010KT P6SM FEW050 BKN250
  FM251000 09005KT P6SM BKN100


KTPA 241502Z 2415/2518 02005KT P6SM SCT025 SCT250
  TEMPO 2415/2416 BKN025
  FM242000 36008KT P6SM VCTS BKN040CB
  FM250200 04005KT P6SM FEW030 BKN250
  FM251700 01007KT P6SM VCSH SCT040 BKN100